Terminal Aerodrome Forecast
Issued by NWS Grand Forks, ND

Home | Current Version | Previous Version | Text Only | Print | Product List | Glossary On
Versions: 1 2 3 4 5 6 7 8 9 10 11 12 13 14 15 16 17 18 19 20 21 22 23 24
523
FTUS43 KFGF 240530
TAFGFK
TAF
KGFK 240530Z 2406/2506 VRB03KT P6SM BKN040
     FM240900 35007KT 4SM BR BKN020
     FM241200 35009KT 5SM BR BKN035
     FM241400 36011KT P6SM SCT035
     FM250300 02007KT P6SM FEW100=

USA.gov is the U.S. government's official web portal to all federal, state and local government web resources and services.